SWR4TH LSZH-LSGG
Flight info
| Callsign | SWR4TH |
|---|---|
| Flight time | 0h 35m |
| Altitude | 18000 |
| Route | VEBIT T50 ROTOS Z669 ULMES |
| Aircraft | A320/M-SDE3FGHIRWY/LB1 |
Departure
| Time | 2026-05-07 17:58 |
|---|---|
| Airport | Zürich Airport (LSZH) |
Arrival
| Time | 2026-05-07 18:33 |
|---|---|
| Airport | Geneva International Airport (LSGG) |
| Time | Latitude | Longitude | Altitude | Speed | Heading |
|---|---|---|---|---|---|
| 2026-05-07 17:31 | 47.45345 | 8.55863 | 1407 ft | 0 kts | 5° |
| 2026-05-07 17:49 | 47.45325 | 8.55860 | 1410 ft | 4 kts | 5° |
| 2026-05-07 17:49 | 47.45304 | 8.55857 | 1409 ft | 4 kts | 6° |
| 2026-05-07 17:50 | 47.45277 | 8.55854 | 1410 ft | 4 kts | 359° |
| 2026-05-07 17:50 | 47.45257 | 8.55859 | 1410 ft | 4 kts | 292° |
| 2026-05-07 17:50 | 47.45253 | 8.55892 | 1407 ft | 3 kts | 276° |
| 2026-05-07 17:50 | 47.45253 | 8.55896 | 1407 ft | 0 kts | 276° |
| 2026-05-07 17:53 | 47.45257 | 8.55833 | 1414 ft | 12 kts | 276° |
| 2026-05-07 17:53 | 47.45267 | 8.55696 | 1407 ft | 15 kts | 276° |
| 2026-05-07 17:53 | 47.45305 | 8.55557 | 1413 ft | 16 kts | 329° |
| 2026-05-07 17:54 | 47.45414 | 8.55482 | 1405 ft | 19 kts | 335° |
| 2026-05-07 17:54 | 47.45545 | 8.55392 | 1401 ft | 22 kts | 335° |
| 2026-05-07 17:54 | 47.45651 | 8.55346 | 1399 ft | 13 kts | 24° |
| 2026-05-07 17:54 | 47.45667 | 8.55462 | 1402 ft | 11 kts | 97° |
| 2026-05-07 17:55 | 47.45657 | 8.55602 | 1404 ft | 18 kts | 96° |
| 2026-05-07 17:55 | 47.45643 | 8.55798 | 1407 ft | 19 kts | 96° |
| 2026-05-07 17:55 | 47.45630 | 8.55989 | 1412 ft | 18 kts | 96° |
| 2026-05-07 17:55 | 47.45616 | 8.56172 | 1414 ft | 15 kts | 97° |
| 2026-05-07 17:56 | 47.45661 | 8.56269 | 1412 ft | 15 kts | 9° |
| 2026-05-07 17:56 | 47.45783 | 8.56288 | 1416 ft | 19 kts | 6° |
| 2026-05-07 17:56 | 47.45925 | 8.56310 | 1413 ft | 21 kts | 6° |
| 2026-05-07 17:56 | 47.46016 | 8.56324 | 1411 ft | 11 kts | 6° |
| 2026-05-07 17:57 | 47.46105 | 8.56385 | 1411 ft | 15 kts | 45° |
| 2026-05-07 17:57 | 47.46157 | 8.56409 | 1410 ft | 9 kts | 325° |
| 2026-05-07 17:57 | 47.46288 | 8.56230 | 1406 ft | 59 kts | 317° |
| 2026-05-07 17:57 | 47.46765 | 8.55578 | 1398 ft | 127 kts | 317° |
| 2026-05-07 17:58 | 47.47545 | 8.54520 | 1618 ft | 160 kts | 317° |
| 2026-05-07 17:58 | 47.48366 | 8.53415 | 2383 ft | 159 kts | 318° |
| 2026-05-07 17:58 | 47.49195 | 8.52308 | 3008 ft | 171 kts | 319° |
| 2026-05-07 17:58 | 47.50250 | 8.51294 | 3393 ft | 193 kts | 332° |
| 2026-05-07 17:59 | 47.51501 | 8.50280 | 3792 ft | 215 kts | 331° |
| 2026-05-07 17:59 | 47.52672 | 8.48873 | 4595 ft | 220 kts | 309° |
| 2026-05-07 17:59 | 47.53384 | 8.46859 | 5464 ft | 224 kts | 284° |
| 2026-05-07 17:59 | 47.53482 | 8.44570 | 6386 ft | 225 kts | 260° |
| 2026-05-07 18:00 | 47.52974 | 8.42382 | 7260 ft | 226 kts | 244° |
| 2026-05-07 18:00 | 47.52228 | 8.40333 | 8163 ft | 227 kts | 233° |
| 2026-05-07 18:00 | 47.51043 | 8.38776 | 8979 ft | 237 kts | 212° |
| 2026-05-07 18:00 | 47.49411 | 8.37926 | 9417 ft | 263 kts | 192° |
| 2026-05-07 18:01 | 47.47561 | 8.37380 | 10056 ft | 277 kts | 194° |
| 2026-05-07 18:01 | 47.45600 | 8.36768 | 10459 ft | 300 kts | 194° |
| 2026-05-07 18:01 | 47.43480 | 8.36086 | 10777 ft | 323 kts | 194° |
| 2026-05-07 18:01 | 47.41258 | 8.35295 | 11369 ft | 332 kts | 200° |
| 2026-05-07 18:02 | 47.37702 | 8.31054 | 12933 ft | 338 kts | 239° |
| 2026-05-07 18:02 | 47.36584 | 8.27979 | 13753 ft | 343 kts | 242° |
| 2026-05-07 18:02 | 47.35475 | 8.24850 | 14477 ft | 346 kts | 243° |
| 2026-05-07 18:03 | 47.34355 | 8.21684 | 15183 ft | 350 kts | 243° |
| 2026-05-07 18:03 | 47.33224 | 8.18487 | 15899 ft | 353 kts | 242° |
| 2026-05-07 18:03 | 47.32078 | 8.15262 | 16602 ft | 357 kts | 242° |
| 2026-05-07 18:03 | 47.30919 | 8.12005 | 16943 ft | 359 kts | 242° |
| 2026-05-07 18:04 | 47.29752 | 8.08724 | 17023 ft | 369 kts | 242° |
| 2026-05-07 18:04 | 47.28542 | 8.05327 | 17033 ft | 379 kts | 242° |
| 2026-05-07 18:04 | 47.27315 | 8.01882 | 17035 ft | 381 kts | 242° |
| 2026-05-07 18:04 | 47.26223 | 7.98333 | 17033 ft | 381 kts | 248° |
| 2026-05-07 18:05 | 47.25219 | 7.94720 | 17022 ft | 381 kts | 248° |
| 2026-05-07 18:05 | 47.24211 | 7.91111 | 17022 ft | 381 kts | 248° |
| 2026-05-07 18:05 | 47.23201 | 7.87505 | 17026 ft | 381 kts | 248° |
| 2026-05-07 18:05 | 47.22188 | 7.83899 | 17023 ft | 381 kts | 248° |
| 2026-05-07 18:06 | 47.21174 | 7.80296 | 17023 ft | 381 kts | 247° |
| 2026-05-07 18:06 | 47.20159 | 7.76693 | 17015 ft | 381 kts | 247° |
| 2026-05-07 18:06 | 47.19067 | 7.73147 | 17013 ft | 381 kts | 241° |
| 2026-05-07 18:06 | 47.17597 | 7.69906 | 17013 ft | 381 kts | 232° |
| 2026-05-07 18:07 | 47.15948 | 7.66849 | 17012 ft | 382 kts | 232° |
| 2026-05-07 18:07 | 47.14319 | 7.63840 | 17012 ft | 382 kts | 232° |
| 2026-05-07 18:07 | 47.12666 | 7.60793 | 17003 ft | 381 kts | 232° |
| 2026-05-07 18:07 | 47.11014 | 7.57748 | 17011 ft | 381 kts | 232° |
| 2026-05-07 18:08 | 47.09363 | 7.54703 | 17016 ft | 381 kts | 232° |
| 2026-05-07 18:08 | 47.07713 | 7.51660 | 17016 ft | 381 kts | 232° |
| 2026-05-07 18:08 | 47.06064 | 7.48622 | 17003 ft | 381 kts | 232° |
| 2026-05-07 18:08 | 47.04416 | 7.45586 | 17002 ft | 381 kts | 232° |
| 2026-05-07 18:09 | 47.02768 | 7.42544 | 17000 ft | 381 kts | 232° |
| 2026-05-07 18:09 | 47.01119 | 7.39510 | 17003 ft | 381 kts | 232° |
| 2026-05-07 18:09 | 46.99464 | 7.36483 | 17001 ft | 381 kts | 232° |
| 2026-05-07 18:09 | 46.97807 | 7.33464 | 16996 ft | 377 kts | 232° |
| 2026-05-07 18:10 | 46.96174 | 7.30476 | 17008 ft | 378 kts | 232° |
| 2026-05-07 18:10 | 46.94549 | 7.27514 | 16850 ft | 367 kts | 232° |
| 2026-05-07 18:10 | 46.92962 | 7.24627 | 16661 ft | 362 kts | 232° |
| 2026-05-07 18:10 | 46.91391 | 7.21775 | 16466 ft | 360 kts | 232° |
| 2026-05-07 18:11 | 46.89826 | 7.18931 | 16280 ft | 358 kts | 232° |
| 2026-05-07 18:11 | 46.88794 | 7.17054 | 16144 ft | 357 kts | 232° |
| 2026-05-07 18:11 | 46.86719 | 7.13273 | 15873 ft | 356 kts | 232° |
| 2026-05-07 18:11 | 46.85173 | 7.10460 | 15671 ft | 354 kts | 232° |
| 2026-05-07 18:12 | 46.83627 | 7.07658 | 15473 ft | 353 kts | 232° |
| 2026-05-07 18:12 | 46.82086 | 7.04874 | 15269 ft | 352 kts | 232° |
| 2026-05-07 18:12 | 46.80550 | 7.02095 | 15071 ft | 351 kts | 232° |
| 2026-05-07 18:12 | 46.79018 | 6.99321 | 14874 ft | 350 kts | 232° |
| 2026-05-07 18:13 | 46.77493 | 6.96557 | 14669 ft | 349 kts | 232° |
| 2026-05-07 18:13 | 46.75969 | 6.93802 | 14486 ft | 348 kts | 232° |
| 2026-05-07 18:13 | 46.74449 | 6.91062 | 14287 ft | 347 kts | 232° |
| 2026-05-07 18:13 | 46.72933 | 6.88327 | 14095 ft | 347 kts | 232° |
| 2026-05-07 18:14 | 46.71416 | 6.85596 | 13907 ft | 346 kts | 232° |
| 2026-05-07 18:14 | 46.69899 | 6.82874 | 13702 ft | 345 kts | 231° |
| 2026-05-07 18:14 | 46.68387 | 6.80161 | 13486 ft | 345 kts | 231° |
| 2026-05-07 18:14 | 46.66844 | 6.77500 | 13271 ft | 343 kts | 227° |
| 2026-05-07 18:15 | 46.65079 | 6.75167 | 13058 ft | 343 kts | 219° |
| 2026-05-07 18:15 | 46.63089 | 6.73265 | 12844 ft | 342 kts | 210° |
| 2026-05-07 18:15 | 46.60988 | 6.71633 | 12630 ft | 342 kts | 209° |
| 2026-05-07 18:15 | 46.58901 | 6.70001 | 12418 ft | 340 kts | 210° |
| 2026-05-07 18:16 | 46.56851 | 6.68382 | 12220 ft | 339 kts | 210° |
| 2026-05-07 18:16 | 46.54780 | 6.66740 | 12046 ft | 338 kts | 210° |
| 2026-05-07 18:16 | 46.52717 | 6.65108 | 12016 ft | 338 kts | 210° |
| 2026-05-07 18:16 | 46.50649 | 6.63480 | 12009 ft | 338 kts | 210° |
| 2026-05-07 18:17 | 46.48631 | 6.61897 | 12007 ft | 321 kts | 209° |
| 2026-05-07 18:17 | 46.46722 | 6.60404 | 12019 ft | 303 kts | 209° |
| 2026-05-07 18:17 | 46.44914 | 6.58991 | 12005 ft | 289 kts | 210° |
| 2026-05-07 18:17 | 46.43156 | 6.57613 | 12008 ft | 286 kts | 210° |
| 2026-05-07 18:18 | 46.41408 | 6.56241 | 12013 ft | 285 kts | 210° |
| 2026-05-07 18:18 | 46.39722 | 6.54740 | 12013 ft | 284 kts | 219° |
| 2026-05-07 18:18 | 46.38283 | 6.52793 | 12004 ft | 284 kts | 226° |
| 2026-05-07 18:18 | 46.36907 | 6.50729 | 11919 ft | 285 kts | 226° |
| 2026-05-07 18:19 | 46.35528 | 6.48681 | 11715 ft | 284 kts | 226° |
| 2026-05-07 18:19 | 46.34150 | 6.46645 | 11489 ft | 283 kts | 225° |
| 2026-05-07 18:19 | 46.32775 | 6.44614 | 11264 ft | 282 kts | 225° |
| 2026-05-07 18:19 | 46.31405 | 6.42592 | 11039 ft | 281 kts | 225° |
| 2026-05-07 18:20 | 46.30039 | 6.40577 | 10821 ft | 280 kts | 225° |
| 2026-05-07 18:20 | 46.28681 | 6.38578 | 10600 ft | 278 kts | 225° |
| 2026-05-07 18:20 | 46.27331 | 6.36591 | 10381 ft | 276 kts | 225° |
| 2026-05-07 18:20 | 46.25991 | 6.34614 | 10164 ft | 275 kts | 225° |
| 2026-05-07 18:21 | 46.24655 | 6.32645 | 9949 ft | 274 kts | 225° |
| 2026-05-07 18:21 | 46.23323 | 6.30691 | 9716 ft | 273 kts | 225° |
| 2026-05-07 18:21 | 46.21993 | 6.28742 | 9482 ft | 273 kts | 225° |
| 2026-05-07 18:21 | 46.20663 | 6.26788 | 9238 ft | 272 kts | 225° |
| 2026-05-07 18:22 | 46.19337 | 6.24840 | 8999 ft | 272 kts | 225° |
| 2026-05-07 18:22 | 46.18442 | 6.23519 | 8840 ft | 273 kts | 225° |
| 2026-05-07 18:22 | 46.16690 | 6.20919 | 8527 ft | 273 kts | 225° |
| 2026-05-07 18:22 | 46.15368 | 6.18952 | 8318 ft | 273 kts | 225° |
| 2026-05-07 18:23 | 46.14044 | 6.16985 | 8116 ft | 274 kts | 225° |
| 2026-05-07 18:23 | 46.12720 | 6.15020 | 7911 ft | 273 kts | 225° |
| 2026-05-07 18:23 | 46.11399 | 6.13062 | 7706 ft | 272 kts | 225° |
| 2026-05-07 18:23 | 46.10074 | 6.11104 | 7506 ft | 272 kts | 225° |
| 2026-05-07 18:24 | 46.08751 | 6.09155 | 7310 ft | 272 kts | 225° |
| 2026-05-07 18:24 | 46.07420 | 6.07225 | 7092 ft | 272 kts | 225° |
| 2026-05-07 18:24 | 46.06097 | 6.05319 | 6977 ft | 263 kts | 224° |
| 2026-05-07 18:24 | 46.04849 | 6.03524 | 6977 ft | 245 kts | 224° |
| 2026-05-07 18:25 | 46.03666 | 6.01817 | 6982 ft | 239 kts | 224° |
| 2026-05-07 18:25 | 46.02492 | 6.00122 | 6982 ft | 239 kts | 224° |
| 2026-05-07 18:25 | 46.01314 | 5.98424 | 6983 ft | 240 kts | 224° |
| 2026-05-07 18:25 | 46.00128 | 5.96723 | 6982 ft | 242 kts | 224° |
| 2026-05-07 18:26 | 45.98939 | 5.95009 | 6982 ft | 242 kts | 227° |
| 2026-05-07 18:26 | 45.98123 | 5.92924 | 6985 ft | 241 kts | 256° |
| 2026-05-07 18:26 | 45.98179 | 5.90536 | 6987 ft | 243 kts | 288° |
| 2026-05-07 18:26 | 45.99063 | 5.88461 | 6990 ft | 247 kts | 310° |
| 2026-05-07 18:27 | 46.00234 | 5.86642 | 6867 ft | 248 kts | 313° |
| 2026-05-07 18:27 | 46.01463 | 5.84900 | 6603 ft | 249 kts | 321° |
| 2026-05-07 18:27 | 46.03007 | 5.83875 | 6455 ft | 248 kts | 349° |
| 2026-05-07 18:27 | 46.04146 | 5.83812 | 6348 ft | 249 kts | 9° |
| 2026-05-07 18:28 | 46.06195 | 5.85189 | 6000 ft | 244 kts | 45° |
| 2026-05-07 18:28 | 46.07391 | 5.86911 | 5695 ft | 242 kts | 47° |
| 2026-05-07 18:28 | 46.08564 | 5.88636 | 5389 ft | 239 kts | 46° |
| 2026-05-07 18:28 | 46.09730 | 5.90336 | 5066 ft | 236 kts | 46° |
| 2026-05-07 18:29 | 46.10864 | 5.91986 | 4763 ft | 227 kts | 46° |
| 2026-05-07 18:29 | 46.11957 | 5.93577 | 4453 ft | 218 kts | 46° |
| 2026-05-07 18:29 | 46.13000 | 5.95096 | 4173 ft | 208 kts | 45° |
| 2026-05-07 18:29 | 46.13981 | 5.96528 | 3911 ft | 198 kts | 45° |
| 2026-05-07 18:30 | 46.14927 | 5.97907 | 3656 ft | 191 kts | 45° |
| 2026-05-07 18:30 | 46.15836 | 5.99234 | 3389 ft | 179 kts | 45° |
| 2026-05-07 18:30 | 46.16672 | 6.00455 | 3160 ft | 163 kts | 45° |
| 2026-05-07 18:30 | 46.17424 | 6.01552 | 2965 ft | 145 kts | 45° |
| 2026-05-07 18:31 | 46.18106 | 6.02550 | 2777 ft | 136 kts | 44° |
| 2026-05-07 18:31 | 46.18760 | 6.03508 | 2551 ft | 132 kts | 46° |
| 2026-05-07 18:31 | 46.19409 | 6.04452 | 2387 ft | 133 kts | 45° |
| 2026-05-07 18:31 | 46.20049 | 6.05400 | 2208 ft | 131 kts | 44° |
| 2026-05-07 18:32 | 46.20696 | 6.06331 | 2003 ft | 131 kts | 44° |
| 2026-05-07 18:32 | 46.21331 | 6.07271 | 1818 ft | 131 kts | 45° |
| 2026-05-07 18:32 | 46.21973 | 6.08210 | 1665 ft | 131 kts | 45° |
| 2026-05-07 18:32 | 46.22616 | 6.09148 | 1502 ft | 131 kts | 45° |
| 2026-05-07 18:33 | 46.23240 | 6.10065 | 1410 ft | 119 kts | 46° |
| 2026-05-07 18:33 | 46.23698 | 6.10737 | 1380 ft | 54 kts | 45° |
| 2026-05-07 18:33 | 46.23826 | 6.10924 | 1382 ft | 20 kts | 45° |
| 2026-05-07 18:33 | 46.23847 | 6.11058 | 1378 ft | 16 kts | 140° |
| 2026-05-07 18:34 | 46.23760 | 6.11088 | 1382 ft | 5 kts | 171° |
| 2026-05-07 18:34 | 46.23747 | 6.11091 | 1384 ft | 0 kts | 171° |
| 2026-05-07 18:34 | 46.23706 | 6.11078 | 1388 ft | 11 kts | 212° |
| 2026-05-07 18:34 | 46.23659 | 6.11013 | 1386 ft | 9 kts | 225° |
| 2026-05-07 18:35 | 46.23593 | 6.10916 | 1390 ft | 14 kts | 225° |
| 2026-05-07 18:35 | 46.23527 | 6.10819 | 1391 ft | 13 kts | 225° |
| 2026-05-07 18:35 | 46.23468 | 6.10731 | 1388 ft | 12 kts | 225° |
| 2026-05-07 18:35 | 46.23407 | 6.10719 | 1402 ft | 8 kts | 146° |
| 2026-05-07 18:36 | 46.23369 | 6.10773 | 1397 ft | 9 kts | 135° |
| 2026-05-07 18:36 | 46.23311 | 6.10799 | 1395 ft | 9 kts | 191° |
| 2026-05-07 18:36 | 46.23252 | 6.10773 | 1393 ft | 10 kts | 201° |
| 2026-05-07 18:36 | 46.23203 | 6.10714 | 1404 ft | 9 kts | 225° |
| 2026-05-07 18:37 | 46.23162 | 6.10653 | 1396 ft | 8 kts | 225° |
| 2026-05-07 18:37 | 46.23120 | 6.10641 | 1393 ft | 6 kts | 148° |
| 2026-05-07 18:37 | 46.23102 | 6.10666 | 1394 ft | 0 kts | 135° |
| 2026-05-07 18:37 | 46.23099 | 6.10670 | 1393 ft | 0 kts | 135° |
| 2026-05-07 18:39 | 46.23100 | 6.10670 | 1393 ft | 0 kts | 135° |